A80 TRACON Summary / KATL TAF
ATL TRACON Summary:
Expect VFR conditions under mostly upper level cirrus clouds as high pressure remains in place over ATL. Surface winds will be mostly north to northwest at 5-9kts. Flight Hazards: none expected.

Updated: 2/6/2016 7:10 PM
ATL Terminal Aerodrome Forecast:

FTUS80 KATL 062330
KATL 062328Z 0700/0806 06008KT P6SM FEW090 BKN200
     FM070300 35007KT P6SM SCT250
     FM071500 32011G17KT P6SM FEW250
     FM080000 29006KT P6SM SCT250
ATL TRACON Area Remark:
FROST AND RELATED DE-ICING OPERATIONS POSSIBLE BETWEEN 08 TO 14Z.
Convective Gate Forecast / Icing Gate Forecast / Vertical Wind Profile (click on image to enlarge)
Convective Gate Forecast
Icing Gate Forecast
AIRMETs & SIGMETS/ Southeast Radar loop / Satellite Image (click on image to enlarge)

Southeast Radar Loop

 



USA.gov is the U.S. government's official web portal to all federal, state and local government web resources and services.